Terminal Aerodrome Forecast
Issued by NWS Sioux Falls, SD

Home | Current Version | Previous Version | Graphics & Text | Print | Product List | Glossary Off
Versions: 1 2 3 4 5 6 7 8 9 10 11 12 13 14 15

743
FTUS43 KFSD 231724
TAFHON
TAF
KHON 231724Z 2318/2418 16006KT P6SM FEW250
     FM240500 12005KT P6SM BKN090
     FM241100 03009KT P6SM -RA OVC040
     FM241500 03015G23KT 6SM -RA OVC030=

USA.gov is the U.S. government's official web portal to all federal, state and local government web resources and services.